Terminal Aerodrome Forecast
Issued by NWS

Home | Current Version | Previous Version | Text Only | Print | Product List | Glossary On
Versions: 1 2 3 4 5 6 7 8 9 10 11 12 13 14 15 16 17
000
FTUS43 KSGF 252200 AAA
TAFJLN
TAF AMD
KJLN 252203Z 2522/2618 29015G25KT P6SM SCT080
     FM260000 33010KT P6SM SCT050
     FM260600 36008KT P6SM SCT007 BKN017
     FM260800 02007KT 5SM BR OVC007
     FM261400 07011KT P6SM SCT007 BKN020=

USA.gov is the U.S. government's official web portal to all federal, state and local government web resources and services.